createdAt,value
2018-10-07T00:01:18.495Z,14.82
2018-10-07T00:03:45.778Z,14.78
2018-10-07T00:06:12.989Z,14.74
2018-10-07T00:08:41.273Z,14.69
2018-10-07T00:11:08.525Z,14.65
2018-10-07T00:13:35.895Z,14.55
2018-10-07T00:16:03.136Z,14.49
2018-10-07T00:18:30.290Z,14.40
2018-10-07T00:20:57.541Z,14.42
2018-10-07T00:23:25.286Z,14.41
2018-10-07T00:25:52.491Z,14.41
2018-10-07T00:28:19.733Z,14.42
2018-10-07T00:30:47.037Z,14.42
2018-10-07T00:33:14.257Z,14.49
2018-10-07T00:35:41.490Z,14.40
2018-10-07T00:38:08.734Z,14.37
2018-10-07T00:40:35.869Z,14.36
2018-10-07T00:43:03.223Z,14.32
2018-10-07T00:45:30.989Z,14.16
2018-10-07T00:47:58.242Z,14.20
2018-10-07T00:50:25.632Z,14.22
2018-10-07T00:52:53.068Z,14.14
2018-10-07T00:55:20.645Z,14.16
2018-10-07T00:57:47.841Z,14.13
2018-10-07T01:00:14.994Z,14.11
2018-10-07T01:02:42.191Z,14.05
2018-10-07T01:05:09.401Z,14.05
2018-10-07T01:07:36.567Z,13.98
2018-10-07T01:10:03.974Z,13.92
2018-10-07T01:12:31.182Z,13.95
2018-10-07T01:14:58.406Z,13.98
2018-10-07T01:17:26.295Z,14.00
2018-10-07T01:19:53.493Z,13.94
2018-10-07T01:22:20.698Z,13.89
2018-10-07T01:24:47.898Z,13.90
2018-10-07T01:27:15.152Z,13.80
2018-10-07T01:29:42.404Z,13.66
2018-10-07T01:32:09.601Z,13.67
2018-10-07T01:34:36.850Z,13.68
2018-10-07T01:37:04.097Z,13.73
2018-10-07T01:39:31.359Z,13.71
2018-10-07T01:41:58.558Z,13.64
2018-10-07T01:44:25.767Z,13.65
2018-10-07T01:46:52.928Z,13.54
2018-10-07T01:49:20.571Z,13.57
2018-10-07T01:51:47.871Z,13.51
2018-10-07T01:54:15.040Z,13.50
2018-10-07T01:56:42.222Z,13.34
2018-10-07T01:59:09.428Z,13.37
2018-10-07T02:01:36.628Z,13.27
2018-10-07T02:04:03.877Z,13.29
2018-10-07T02:06:31.090Z,13.31
2018-10-07T02:08:58.234Z,13.28
2018-10-07T02:11:25.467Z,13.26
2018-10-07T02:13:52.756Z,13.28
2018-10-07T02:16:19.983Z,13.33
2018-10-07T02:18:47.254Z,13.32
2018-10-07T02:21:14.490Z,13.29
2018-10-07T02:23:41.694Z,13.21
2018-10-07T02:26:08.988Z,13.23
2018-10-07T02:28:36.362Z,13.16
2018-10-07T02:31:03.783Z,13.03
2018-10-07T02:33:30.975Z,12.99
2018-10-07T02:35:58.207Z,13.06
2018-10-07T02:38:25.410Z,13.09
2018-10-07T02:40:52.600Z,13.04
2018-10-07T02:43:19.796Z,13.03
2018-10-07T02:45:47.076Z,13.10
2018-10-07T02:48:14.216Z,13.12
2018-10-07T02:50:41.482Z,13.08
2018-10-07T02:53:08.870Z,13.08
2018-10-07T02:55:36.813Z,12.98
2018-10-07T02:58:04.514Z,12.75
2018-10-07T03:00:31.719Z,12.66
2018-10-07T03:02:58.938Z,12.66
2018-10-07T03:05:26.171Z,12.77
2018-10-07T03:07:53.384Z,12.85
2018-10-07T03:10:20.636Z,12.83
2018-10-07T03:12:47.866Z,12.84
2018-10-07T03:15:15.118Z,12.82
2018-10-07T03:17:42.328Z,12.81
2018-10-07T03:20:09.526Z,12.75
2018-10-07T03:22:36.828Z,12.73
2018-10-07T03:25:04.286Z,12.64
2018-10-07T03:27:31.495Z,12.60
2018-10-07T03:29:58.632Z,12.67
2018-10-07T03:32:25.838Z,12.69
2018-10-07T03:34:53.047Z,12.60
2018-10-07T03:37:20.246Z,12.38
2018-10-07T03:39:47.453Z,12.69
2018-10-07T03:42:15.072Z,12.72
2018-10-07T03:44:42.202Z,12.62
2018-10-07T03:47:09.522Z,12.73
2018-10-07T03:49:37.055Z,12.68
2018-10-07T03:52:04.321Z,12.62
2018-10-07T03:54:31.777Z,12.69
2018-10-07T03:56:58.915Z,12.63
2018-10-07T03:59:26.145Z,12.66
2018-10-07T04:01:53.965Z,12.70
2018-10-07T04:04:21.190Z,12.69
2018-10-07T04:06:48.542Z,12.73
2018-10-07T04:09:15.724Z,12.61
2018-10-07T04:11:43.271Z,12.61
2018-10-07T04:14:11.577Z,12.55
2018-10-07T04:16:39.292Z,12.50
2018-10-07T04:19:06.920Z,12.44
2018-10-07T04:21:34.246Z,12.50
2018-10-07T04:24:01.837Z,12.51
2018-10-07T04:26:29.082Z,12.45
2018-10-07T04:28:56.290Z,12.45
2018-10-07T04:31:23.680Z,12.52
2018-10-07T04:33:50.902Z,12.56
2018-10-07T04:36:18.041Z,12.50
2018-10-07T04:38:45.305Z,12.55
2018-10-07T04:41:12.557Z,12.51
2018-10-07T04:43:39.698Z,12.53
2018-10-07T04:46:06.953Z,12.53
2018-10-07T04:48:34.106Z,12.47
2018-10-07T04:51:01.300Z,12.50
2018-10-07T04:53:28.852Z,12.41
2018-10-07T04:55:56.148Z,12.35
2018-10-07T04:58:23.469Z,12.43
2018-10-07T05:00:50.650Z,12.35
2018-10-07T05:03:17.858Z,12.33
2018-10-07T05:05:45.049Z,12.26
2018-10-07T05:08:12.284Z,12.14
2018-10-07T05:10:45.066Z,12.03
2018-10-07T05:13:14.829Z,12.06
2018-10-07T05:15:42.210Z,12.22
2018-10-07T05:18:09.815Z,12.08
2018-10-07T05:20:36.961Z,12.04
2018-10-07T05:23:04.171Z,12.05
2018-10-07T05:25:31.393Z,12.04
2018-10-07T05:27:58.724Z,11.94
2018-10-07T05:30:25.976Z,11.95
2018-10-07T05:32:53.118Z,11.88
2018-10-07T05:35:20.497Z,11.79
2018-10-07T05:37:47.702Z,11.71
2018-10-07T05:40:14.941Z,11.79
2018-10-07T05:42:42.412Z,11.81
2018-10-07T05:45:09.628Z,11.77
2018-10-07T05:47:36.844Z,11.61
2018-10-07T05:50:04.034Z,11.56
2018-10-07T05:52:31.248Z,11.70
2018-10-07T05:54:58.498Z,11.72
2018-10-07T05:57:25.744Z,11.68
2018-10-07T05:59:52.903Z,11.67
2018-10-07T06:02:20.216Z,11.74
2018-10-07T06:04:51.025Z,11.73
2018-10-07T06:07:18.601Z,11.79
2018-10-07T06:09:45.783Z,11.82
2018-10-07T06:12:12.966Z,11.86
2018-10-07T06:14:51.711Z,11.83
2018-10-07T06:17:18.920Z,11.88
2018-10-07T06:19:46.066Z,11.93
2018-10-07T06:22:13.322Z,11.95
2018-10-07T06:24:40.709Z,11.99
2018-10-07T06:27:07.931Z,12.03
2018-10-07T06:29:35.129Z,12.08
2018-10-07T06:32:02.407Z,12.08
2018-10-07T06:34:29.619Z,12.06
2018-10-07T06:36:56.820Z,12.12
2018-10-07T06:39:24.515Z,12.37
2018-10-07T06:41:51.856Z,12.44
2018-10-07T06:44:19.379Z,12.50
2018-10-07T06:46:46.776Z,12.53
2018-10-07T06:49:14.097Z,12.54
2018-10-07T06:51:41.331Z,12.65
2018-10-07T06:54:08.532Z,12.70
2018-10-07T06:56:35.746Z,12.55
2018-10-07T06:59:03.004Z,12.74
2018-10-07T07:01:30.277Z,12.75
2018-10-07T07:03:58.547Z,11.98
2018-10-07T07:06:25.842Z,12.70
2018-10-07T07:08:52.986Z,12.78
2018-10-07T07:11:20.184Z,12.99
2018-10-07T07:13:47.427Z,13.32
2018-10-07T07:16:14.704Z,13.47
2018-10-07T07:18:41.881Z,13.56
2018-10-07T07:21:09.692Z,13.52
2018-10-07T07:23:36.867Z,13.58
2018-10-07T07:26:04.201Z,13.69
2018-10-07T07:28:31.379Z,13.63
2018-10-07T07:30:58.622Z,13.68
2018-10-07T07:33:25.806Z,13.72
2018-10-07T07:35:53.003Z,13.68
2018-10-07T07:38:20.191Z,13.81
2018-10-07T07:40:47.414Z,13.95
2018-10-07T07:43:14.611Z,14.03
2018-10-07T07:45:41.806Z,14.12
2018-10-07T07:48:08.982Z,14.19
2018-10-07T07:50:36.181Z,14.23
2018-10-07T07:53:03.561Z,14.18
2018-10-07T07:55:30.761Z,14.32
2018-10-07T07:57:57.932Z,14.43
2018-10-07T08:00:25.200Z,14.49
2018-10-07T08:02:52.423Z,14.54
2018-10-07T08:05:19.599Z,14.59
2018-10-07T08:07:46.791Z,14.74
2018-10-07T08:10:13.961Z,14.92
2018-10-07T08:12:41.170Z,15.03
2018-10-07T08:15:08.550Z,15.17
2018-10-07T08:17:36.010Z,15.34
2018-10-07T08:20:03.279Z,15.49
2018-10-07T08:22:30.507Z,15.60
2018-10-07T08:24:57.722Z,15.03
2018-10-07T08:27:25.523Z,15.89
2018-10-07T08:29:52.696Z,16.06
2018-10-07T08:32:19.847Z,16.08
2018-10-07T08:34:46.931Z,16.09
2018-10-07T08:37:14.193Z,16.13
2018-10-07T08:39:41.618Z,16.26
2018-10-07T08:42:08.812Z,16.43
2018-10-07T08:44:36.037Z,16.55
2018-10-07T08:47:03.259Z,16.59
2018-10-07T08:49:30.557Z,16.62
2018-10-07T08:51:57.931Z,16.59
2018-10-07T08:54:25.163Z,16.64
2018-10-07T08:56:52.317Z,16.63
2018-10-07T08:59:19.512Z,16.65
2018-10-07T09:01:46.765Z,16.75
2018-10-07T09:04:13.894Z,16.87
2018-10-07T09:06:41.147Z,17.02
2018-10-07T09:09:09.518Z,17.02
2018-10-07T09:11:36.663Z,17.01
2018-10-07T09:14:03.932Z,17.10
2018-10-07T09:16:31.096Z,17.21
2018-10-07T09:18:58.320Z,17.28
2018-10-07T09:21:25.561Z,16.33
2018-10-07T09:23:52.710Z,17.33
2018-10-07T09:26:19.899Z,17.31
2018-10-07T09:28:47.049Z,17.42
2018-10-07T09:31:14.237Z,17.51
2018-10-07T09:33:41.438Z,17.54
2018-10-07T09:36:08.684Z,17.72
2018-10-07T09:38:35.829Z,17.92
2018-10-07T09:41:03.242Z,18.11
2018-10-07T09:43:30.398Z,18.07
2018-10-07T09:45:57.565Z,18.17
2018-10-07T09:48:24.883Z,18.20
2018-10-07T09:50:52.034Z,18.12
2018-10-07T09:53:19.246Z,18.07
2018-10-07T09:55:46.493Z,18.12
2018-10-07T09:58:13.669Z,18.27
2018-10-07T10:00:42.445Z,18.46
2018-10-07T10:03:11.255Z,18.68
2018-10-07T10:05:38.709Z,18.78
2018-10-07T10:08:06.257Z,18.89
2018-10-07T10:10:33.490Z,18.90
2018-10-07T10:13:00.723Z,18.93
2018-10-07T10:15:27.881Z,18.82
2018-10-07T10:17:59.979Z,18.79
2018-10-07T10:20:34.125Z,18.68
2018-10-07T10:25:19.186Z,18.77
2018-10-07T10:27:57.707Z,19.06
2018-10-07T10:30:34.385Z,19.19
2018-10-07T10:33:09.817Z,19.26
2018-10-07T10:35:57.402Z,19.27
2018-10-07T10:38:35.991Z,19.23
2018-10-07T10:41:07.965Z,19.37
2018-10-07T10:44:01.665Z,19.48
2018-10-07T10:46:40.210Z,19.54
2018-10-07T10:50:15.302Z,19.62
2018-10-07T10:53:01.588Z,19.58
2018-10-07T10:55:35.773Z,19.56
2018-10-07T10:58:13.771Z,19.63
2018-10-07T11:00:48.900Z,19.71
2018-10-07T11:03:21.772Z,19.75
2018-10-07T11:05:53.710Z,19.82
2018-10-07T11:08:32.123Z,19.90
2018-10-07T11:11:39.012Z,20.16
2018-10-07T11:14:25.326Z,20.24
2018-10-07T11:19:22.867Z,20.19
2018-10-07T11:23:59.874Z,20.55
2018-10-07T11:26:34.351Z,20.40
2018-10-07T11:29:10.996Z,20.47
2018-10-07T11:31:45.871Z,20.62
2018-10-07T11:36:26.436Z,20.69
2018-10-07T11:39:09.453Z,20.60
2018-10-07T11:41:44.903Z,20.72
2018-10-07T11:44:20.633Z,20.90
2018-10-07T11:46:57.378Z,21.00
2018-10-07T11:49:44.234Z,21.14
2018-10-07T11:52:22.922Z,21.27
2018-10-07T11:54:58.602Z,21.44
2018-10-07T11:57:26.442Z,21.49
2018-10-07T11:59:53.642Z,21.59
2018-10-07T12:02:20.990Z,21.75
2018-10-07T12:04:48.187Z,21.54
2018-10-07T12:07:15.756Z,21.74
2018-10-07T12:09:42.946Z,21.93
2018-10-07T12:12:10.328Z,21.85
2018-10-07T12:14:37.651Z,21.65
2018-10-07T12:17:04.988Z,21.50
2018-10-07T12:19:32.158Z,21.32
2018-10-07T12:21:59.339Z,20.56
2018-10-07T12:24:26.598Z,21.43
2018-10-07T12:26:53.913Z,21.55
2018-10-07T12:29:21.142Z,21.60
2018-10-07T12:31:48.441Z,21.72
2018-10-07T12:34:15.938Z,21.88
2018-10-07T12:36:43.199Z,21.91
2018-10-07T12:39:10.426Z,21.78
2018-10-07T12:41:37.707Z,21.87
2018-10-07T12:44:05.009Z,22.09
2018-10-07T12:46:32.778Z,22.08
2018-10-07T12:49:00.051Z,22.33
2018-10-07T12:51:27.255Z,22.50
2018-10-07T12:53:54.579Z,22.72
2018-10-07T12:56:21.720Z,22.82
2018-10-07T12:58:49.138Z,20.69
2018-10-07T13:01:16.490Z,23.22
2018-10-07T13:03:43.811Z,23.27
2018-10-07T13:06:11.510Z,22.86
2018-10-07T13:08:38.766Z,22.68
2018-10-07T13:11:05.942Z,22.70
2018-10-07T13:13:33.928Z,22.58
2018-10-07T13:16:01.245Z,22.49
2018-10-07T13:18:28.517Z,22.39
2018-10-07T13:20:55.782Z,22.11
2018-10-07T13:23:23.607Z,21.98
2018-10-07T13:25:50.886Z,22.00
2018-10-07T13:28:18.553Z,21.97
2018-10-07T13:30:45.783Z,21.91
2018-10-07T13:33:14.036Z,21.94
2018-10-07T13:35:41.269Z,21.85
2018-10-07T13:38:08.574Z,21.85
2018-10-07T13:40:35.843Z,21.78
2018-10-07T13:43:03.134Z,21.72
2018-10-07T13:45:30.358Z,21.72
2018-10-07T13:47:57.690Z,21.77
2018-10-07T13:50:25.005Z,21.78
2018-10-07T13:52:52.204Z,21.83
2018-10-07T13:55:19.399Z,21.77
2018-10-07T13:57:46.614Z,21.37
2018-10-07T14:00:14.109Z,21.39
2018-10-07T14:02:42.004Z,21.22
2018-10-07T14:05:09.431Z,21.14
2018-10-07T14:07:36.699Z,20.93
2018-10-07T14:10:04.066Z,20.90
2018-10-07T14:12:31.314Z,20.70
2018-10-07T14:14:58.631Z,20.73
2018-10-07T14:17:25.889Z,20.70
2018-10-07T14:19:53.139Z,20.76
2018-10-07T14:22:20.425Z,20.72
2018-10-07T14:24:47.654Z,20.40
2018-10-07T14:27:15.282Z,16.70
2018-10-07T14:29:42.943Z,20.28
2018-10-07T14:32:10.370Z,20.27
2018-10-07T14:34:37.685Z,20.19
2018-10-07T14:37:05.054Z,20.06
2018-10-07T14:39:32.326Z,20.25
2018-10-07T14:41:59.600Z,20.25
2018-10-07T14:44:26.790Z,20.21
2018-10-07T14:46:54.125Z,20.14
2018-10-07T14:49:21.929Z,20.16
2018-10-07T14:51:49.861Z,20.29
2018-10-07T14:54:17.158Z,20.19
2018-10-07T14:56:44.355Z,19.95
2018-10-07T14:59:11.605Z,19.86
2018-10-07T15:01:39.115Z,19.89
2018-10-07T15:04:06.558Z,19.95
2018-10-07T15:06:33.818Z,19.88
2018-10-07T15:09:01.150Z,19.65
2018-10-07T15:11:28.435Z,19.41
2018-10-07T15:13:56.525Z,19.65
2018-10-07T15:16:26.348Z,19.60
2018-10-07T15:18:53.810Z,19.46
2018-10-07T15:21:23.359Z,19.49
2018-10-07T15:23:50.560Z,19.39
2018-10-07T15:26:17.876Z,19.60
2018-10-07T15:28:45.084Z,19.53
2018-10-07T15:31:12.291Z,19.61
2018-10-07T15:33:39.450Z,19.46
2018-10-07T15:36:06.657Z,19.59
2018-10-07T15:38:37.144Z,19.68
2018-10-07T15:41:04.830Z,19.79
2018-10-07T15:43:31.978Z,19.56
2018-10-07T15:45:59.203Z,19.52
2018-10-07T15:48:26.422Z,19.65
2018-10-07T15:50:53.806Z,19.75
2018-10-07T15:53:20.994Z,19.73
2018-10-07T15:55:48.228Z,19.68
2018-10-07T15:58:15.649Z,19.65
2018-10-07T16:00:43.210Z,19.61
2018-10-07T16:03:10.446Z,19.53
2018-10-07T16:05:37.634Z,19.42
2018-10-07T16:08:05.736Z,19.37
2018-10-07T16:10:33.030Z,19.32
2018-10-07T16:13:00.245Z,19.33
2018-10-07T16:15:27.518Z,19.31
2018-10-07T16:17:54.926Z,19.24
2018-10-07T16:20:22.227Z,19.09
2018-10-07T16:22:49.406Z,19.02
2018-10-07T16:25:16.637Z,18.95
2018-10-07T16:27:43.858Z,18.83
2018-10-07T16:30:11.120Z,18.83
2018-10-07T16:32:38.446Z,18.93
2018-10-07T16:35:05.644Z,18.70
2018-10-07T16:37:32.890Z,18.49
2018-10-07T16:40:00.021Z,18.41
2018-10-07T16:42:27.253Z,18.39
2018-10-07T16:44:54.502Z,18.26
2018-10-07T16:47:21.762Z,18.29
2018-10-07T16:49:49.016Z,18.20
2018-10-07T16:52:16.221Z,17.93
2018-10-07T16:54:43.575Z,18.03
2018-10-07T16:57:11.024Z,17.96
2018-10-07T16:59:38.271Z,17.95
2018-10-07T17:02:05.498Z,17.90
2018-10-07T17:04:33.740Z,17.72
2018-10-07T17:07:01.008Z,17.58
2018-10-07T17:09:28.233Z,17.41
2018-10-07T17:11:56.223Z,17.56
2018-10-07T17:14:23.626Z,17.61
2018-10-07T17:16:50.872Z,17.56
2018-10-07T17:19:19.155Z,17.42
2018-10-07T17:21:46.322Z,17.26
2018-10-07T17:24:13.558Z,17.31
2018-10-07T17:26:40.795Z,17.25
2018-10-07T17:29:08.010Z,17.21
2018-10-07T17:31:35.211Z,17.28
2018-10-07T17:34:02.433Z,17.19
2018-10-07T17:36:29.666Z,17.07
2018-10-07T17:38:56.885Z,17.06
2018-10-07T17:41:24.241Z,16.98
2018-10-07T17:43:51.453Z,17.06
2018-10-07T17:46:18.674Z,17.08
2018-10-07T17:48:45.936Z,17.17
2018-10-07T17:51:13.141Z,17.01
2018-10-07T17:53:40.319Z,16.91
2018-10-07T17:56:07.532Z,17.00
2018-10-07T17:58:34.723Z,17.00
2018-10-07T18:01:01.933Z,16.90
2018-10-07T18:03:29.694Z,16.91
2018-10-07T18:05:56.908Z,16.84
2018-10-07T18:08:24.113Z,16.87
2018-10-07T18:10:51.354Z,16.92
2018-10-07T18:13:18.599Z,16.74
2018-10-07T18:15:45.979Z,16.76
2018-10-07T18:18:13.235Z,16.84
2018-10-07T18:20:40.510Z,16.72
2018-10-07T18:23:07.665Z,16.74
2018-10-07T18:25:34.867Z,16.64
2018-10-07T18:28:02.224Z,16.66
2018-10-07T18:30:29.684Z,16.72
2018-10-07T18:32:57.003Z,16.74
2018-10-07T18:35:24.342Z,16.59
2018-10-07T18:37:51.820Z,16.47
2018-10-07T18:40:19.204Z,16.42
2018-10-07T18:42:46.405Z,16.35
2018-10-07T18:45:13.637Z,16.30
2018-10-07T18:47:40.911Z,16.39
2018-10-07T18:50:08.164Z,16.35
2018-10-07T18:52:35.467Z,16.30
2018-10-07T18:55:02.757Z,16.22
2018-10-07T18:57:29.999Z,16.26
2018-10-07T18:59:57.292Z,16.31
2018-10-07T19:02:24.631Z,16.40
2018-10-07T19:04:51.952Z,16.37
2018-10-07T19:07:19.198Z,16.18
2018-10-07T19:09:46.614Z,16.06
2018-10-07T19:12:20.672Z,16.03
2018-10-07T19:14:48.095Z,15.94
2018-10-07T19:17:15.490Z,16.04
2018-10-07T19:19:42.792Z,16.07
2018-10-07T19:22:09.988Z,15.95
2018-10-07T19:24:37.231Z,16.01
2018-10-07T19:27:04.493Z,16.06
2018-10-07T19:29:31.784Z,16.04
2018-10-07T19:31:58.974Z,16.08
2018-10-07T19:34:26.370Z,16.08
2018-10-07T19:36:53.680Z,16.02
2018-10-07T19:39:21.695Z,16.03
2018-10-07T19:41:49.471Z,15.99
2018-10-07T19:44:17.004Z,15.96
2018-10-07T19:46:44.377Z,15.83
2018-10-07T19:49:11.691Z,15.74
2018-10-07T19:51:38.998Z,15.59
2018-10-07T19:54:06.279Z,15.58
2018-10-07T19:56:33.586Z,15.60
2018-10-07T19:59:01.072Z,15.59
2018-10-07T20:01:28.498Z,15.58
2018-10-07T20:03:55.687Z,15.61
2018-10-07T20:06:22.890Z,15.62
2018-10-07T20:08:50.137Z,15.53
2018-10-07T20:11:17.711Z,15.55
2018-10-07T20:13:45.008Z,15.53
2018-10-07T20:16:12.399Z,15.48
2018-10-07T20:18:39.671Z,15.46
2018-10-07T20:21:06.994Z,15.46
2018-10-07T20:23:34.273Z,15.50
2018-10-07T20:26:01.545Z,15.47
2018-10-07T20:28:28.773Z,15.46
2018-10-07T20:30:56.017Z,15.38
2018-10-07T20:33:23.227Z,15.30
2018-10-07T20:35:50.548Z,15.26
2018-10-07T20:38:17.730Z,15.20
2018-10-07T20:40:45.206Z,15.16
2018-10-07T20:43:12.383Z,15.19
2018-10-07T20:45:39.628Z,15.19
2018-10-07T20:48:06.891Z,15.20
2018-10-07T20:50:34.055Z,15.22
2018-10-07T20:53:01.357Z,15.15
2018-10-07T20:55:28.530Z,15.01
2018-10-07T20:57:55.703Z,15.01
2018-10-07T21:00:23.939Z,15.40
2018-10-07T21:02:51.147Z,15.31
2018-10-07T21:05:18.376Z,15.66
2018-10-07T21:07:45.807Z,15.96
2018-10-07T21:10:13.091Z,16.24
2018-10-07T21:12:40.338Z,16.35
2018-10-07T21:15:07.566Z,16.44
2018-10-07T21:17:34.955Z,16.68
2018-10-07T21:20:02.192Z,16.84
2018-10-07T21:22:29.467Z,16.80
2018-10-07T21:24:56.634Z,16.72
2018-10-07T21:27:23.850Z,16.17
2018-10-07T21:29:51.066Z,16.44
2018-10-07T21:32:18.274Z,16.71
2018-10-07T21:34:45.546Z,16.91
2018-10-07T21:37:12.773Z,17.02
2018-10-07T21:39:40.055Z,17.18
2018-10-07T21:42:07.289Z,17.32
2018-10-07T21:44:34.505Z,17.36
2018-10-07T21:47:01.809Z,17.37
2018-10-07T21:49:29.094Z,17.27
2018-10-07T21:51:56.294Z,17.20
2018-10-07T21:54:23.456Z,17.18
2018-10-07T21:56:50.657Z,17.27
2018-10-07T21:59:17.953Z,17.35
2018-10-07T22:01:45.110Z,17.45
2018-10-07T22:04:12.353Z,17.51
2018-10-07T22:06:39.626Z,17.58
2018-10-07T22:09:07.686Z,17.56
2018-10-07T22:11:34.840Z,17.48
2018-10-07T22:14:02.384Z,17.26
2018-10-07T22:16:29.613Z,16.72
2018-10-07T22:18:56.826Z,16.88
2018-10-07T22:21:24.880Z,16.79
2018-10-07T22:23:52.092Z,16.39
2018-10-07T22:26:19.307Z,16.53
2018-10-07T22:28:46.524Z,16.84
2018-10-07T22:31:13.737Z,17.06
2018-10-07T22:33:40.877Z,17.18
2018-10-07T22:36:08.088Z,17.21
2018-10-07T22:38:35.340Z,16.61
2018-10-07T22:41:03.203Z,15.88
2018-10-07T22:43:30.783Z,15.41
2018-10-07T22:45:58.210Z,15.10
2018-10-07T22:48:25.894Z,14.99
2018-10-07T22:50:53.308Z,14.91
2018-10-07T22:53:20.546Z,14.83
2018-10-07T22:55:47.755Z,14.80
2018-10-07T22:58:14.932Z,14.71
2018-10-07T23:00:42.307Z,14.67
2018-10-07T23:03:09.491Z,14.57
2018-10-07T23:05:36.682Z,14.44
2018-10-07T23:08:03.939Z,14.31
2018-10-07T23:10:31.298Z,14.34
2018-10-07T23:12:58.845Z,14.26
2018-10-07T23:15:26.046Z,14.24
2018-10-07T23:17:53.367Z,14.31
2018-10-07T23:20:20.774Z,14.32
2018-10-07T23:22:47.998Z,14.29
2018-10-07T23:25:15.194Z,14.25
2018-10-07T23:27:42.458Z,14.26
2018-10-07T23:30:09.813Z,14.19
2018-10-07T23:35:13.521Z,14.04
2018-10-07T23:37:41.132Z,13.99
2018-10-07T23:40:09.108Z,14.00
2018-10-07T23:42:36.386Z,13.56
2018-10-07T23:45:03.849Z,13.98
2018-10-07T23:47:31.057Z,13.82
2018-10-07T23:49:58.246Z,13.63
2018-10-07T23:52:25.583Z,13.58
2018-10-07T23:54:52.834Z,13.63
2018-10-07T23:57:20.110Z,13.73
2018-10-07T23:59:47.801Z,13.69
